地図

経路データ

SID SEASON NUMBER BASIN SUBBASIN NAME ISO_TIME NATURE LAT LON WMO_WIND WMO_PRES WMO_AGENCY TRACK_TYPE DIST2LAND LANDFALL IFLAG USA_AGENCY USA_ATCF_ID USA_LAT USA_LON USA_RECORD USA_STATUS USA_WIND USA_PRES USA_SSHS USA_R34_NE USA_R34_SE USA_R34_SW USA_R34_NW USA_R50_NE USA_R50_SE USA_R50_SW USA_R50_NW USA_R64_NE USA_R64_SE USA_R64_SW USA_R64_NW USA_POCI USA_ROCI USA_RMW USA_EYE TOKYO_LAT TOKYO_LON TOKYO_GRADE TOKYO_WIND TOKYO_PRES TOKYO_R50_DIR TOKYO_R50_LONG TOKYO_R50_SHORT TOKYO_R30_DIR TOKYO_R30_LONG TOKYO_R30_SHORT TOKYO_LAND CMA_LAT CMA_LON CMA_CAT CMA_WIND CMA_PRES HKO_LAT HKO_LON HKO_CAT HKO_WIND HKO_PRES NEWDELHI_LAT NEWDELHI_LON NEWDELHI_GRADE NEWDELHI_WIND NEWDELHI_PRES NEWDELHI_CI NEWDELHI_DP NEWDELHI_POCI REUNION_LAT REUNION_LON REUNION_TYPE REUNION_WIND REUNION_PRES REUNION_TNUM REUNION_CI REUNION_RMW REUNION_R34_NE REUNION_R34_SE REUNION_R34_SW REUNION_R34_NW REUNION_R50_NE REUNION_R50_SE REUNION_R50_SW REUNION_R50_NW REUNION_R64_NE REUNION_R64_SE REUNION_R64_SW REUNION_R64_NW BOM_LAT BOM_LON BOM_TYPE BOM_WIND BOM_PRES BOM_TNUM BOM_CI BOM_RMW BOM_R34_NE BOM_R34_SE BOM_R34_SW BOM_R34_NW BOM_R50_NE BOM_R50_SE BOM_R50_SW BOM_R50_NW BOM_R64_NE BOM_R64_SE BOM_R64_SW BOM_R64_NW BOM_ROCI BOM_POCI BOM_EYE BOM_POS_METHOD BOM_PRES_METHOD NADI_LAT NADI_LON NADI_CAT NADI_WIND NADI_PRES WELLINGTON_LAT WELLINGTON_LON WELLINGTON_WIND WELLINGTON_PRES DS824_LAT DS824_LON DS824_STAGE DS824_WIND DS824_PRES TD9636_LAT TD9636_LON TD9636_STAGE TD9636_WIND TD9636_PRES TD9635_LAT TD9635_LON TD9635_WIND TD9635_PRES TD9635_ROCI NEUMANN_LAT NEUMANN_LON NEUMANN_CLASS NEUMANN_WIND NEUMANN_PRES MLC_LAT MLC_LON MLC_CLASS MLC_WIND MLC_PRES USA_GUST BOM_GUST BOM_GUST_PER REUNION_GUST REUNION_GUST_PER USA_SEAHGT USA_SEARAD_NE USA_SEARAD_SE USA_SEARAD_SW USA_SEARAD_NW STORM_SPEED STORM_DIR
1957358S13056 1958 87 SI MM NOT_NAMED 1957-12-24 00:00:00 NR -13.3000 56.3000 reunion main 660 650 _____O________ -1 -13.3000 56.3000 99 9.90000 1 249
1957358S13056 1958 87 SI MM NOT_NAMED 1957-12-24 03:00:00 NR -13.3247 56.2289 main 650 650 _____P________ -1 -13.3247 56.2289 99 2 251
1957358S13056 1958 87 SI MM NOT_NAMED 1957-12-24 06:00:00 NR -13.3493 56.1516 main 650 636 _____P________ -1 -13.3493 56.1516 99 2 253
1957358S13056 1958 87 SI MM NOT_NAMED 1957-12-24 09:00:00 NR -13.3741 56.0615 main 636 636 _____P________ -1 -13.3741 56.0615 99 1 265
1957358S13056 1958 87 SI MM NOT_NAMED 1957-12-24 12:00:00 TS -13.3566 56.0586 main 636 619 O____P___OO___ jtwc_sh SH041958 -13.3000 56.2000 -1 -13.3990 55.9525 99 -13.3000 56.2000 TC -13.3000 56.2000 1 1 281
1957358S13056 1958 87 SI MM NOT_NAMED 1957-12-24 15:00:00 TS -13.3491 55.9286 main 619 605 P____P___PP___ SH041958 -13.2900 56.0175 -1 -13.4241 55.8182 99 -13.2900 56.0175 TC -13.3173 55.9718 1 3 270
1957358S13056 1958 87 SI MM NOT_NAMED 1957-12-24 18:00:00 TS -13.3546 55.7395 main 595 575 O____P___OP___ jtwc_sh SH041958 -13.3000 55.8000 -1 -13.4493 55.6522 99 -13.3000 55.8000 TC -13.3376 55.7350 1 4 266
1957358S13056 1958 87 SI MM NOT_NAMED 1957-12-24 21:00:00 TS -13.3809 55.4935 main 575 545 P____P___PP___ SH041958 -13.3425 55.5225 -1 -13.4746 55.4483 99 -13.3425 55.5225 TC -13.3641 55.4806 1 5 262
1957358S13056 1958 87 SI MM NOT_NAMED 1957-12-25 00:00:00 TS -13.4250 55.2000 reunion main 545 510 O____O___OO___ jtwc_sh SH041958 -13.4000 55.2000 -1 -13.5000 55.2000 99 9.90000 -13.4000 55.2000 TC 25 -13.4000 55.2000 1 6 262
1957358S13056 1958 87 SI MM NOT_NAMED 1957-12-25 03:00:00 TS -13.4680 54.8763 main 510 471 P____P___PP___ SH041958 -13.4500 54.8575 -1 -13.5254 54.9033 99 -13.4500 54.8575 TC 25 -13.4468 54.8869 1 7 262
1957358S13056 1958 87 SI MM NOT_NAMED 1957-12-25 06:00:00 TS -13.5126 54.5270 main 471 437 O____P___OP___ jtwc_sh SH041958 -13.5000 54.5000 -1 -13.5507 54.5629 99 -13.5000 54.5000 TC 25 -13.4999 54.5451 1 7 262
1957358S13056 1958 87 SI MM NOT_NAMED 1957-12-25 09:00:00 TS -13.5609 54.1704 main 437 398 P____P___PP___ SH041958 -13.5574 54.1575 -1 -13.5758 54.1860 99 -13.5574 54.1575 TC 25 -13.5530 54.1807 1 7 263
1957358S13056 1958 87 SI MM NOT_NAMED 1957-12-25 12:00:00 TS -13.6002 53.7949 main 398 357 O____P___OO___ jtwc_sh SH041958 -13.6000 53.8000 -1 -13.6008 53.7796 99 -13.6000 53.8000 TC 25 -13.6000 53.8000 1 8 266
1957358S13056 1958 87 SI MM NOT_NAMED 1957-12-25 15:00:00 TS -13.6144 53.3970 main 357 314 P____P___PP___ SH041958 -13.6000 53.4074 -1 -13.6257 53.3508 99 -13.6000 53.4074 TC 25 -13.6320 53.4224 1 8 268
1957358S13056 1958 87 SI MM NOT_NAMED 1957-12-25 18:00:00 TS -13.6269 52.9841 main 314 270 O____P___OP___ jtwc_sh SH041958 -13.6000 53.0000 -1 -13.6504 52.9065 99 -13.6000 53.0000 TC 25 -13.6572 53.0299 1 8 266
1957358S13056 1958 87 SI MM NOT_NAMED 1957-12-25 21:00:00 TS -13.6634 52.5729 main 270 227 P____P___PP___ SH041958 -13.6499 52.6076 -1 -13.6751 52.4539 99 -13.6499 52.6076 TC 25 -13.6788 52.6224 1 8 265
1957358S13056 1958 87 SI MM NOT_NAMED 1957-12-26 00:00:00 TS -13.7000 52.1500 reunion main 227 173 O____O___OO___ jtwc_sh SH041958 -13.7000 52.2000 -1 -13.7000 52.0000 99 9.90000 -13.7000 52.2000 TC 25 -13.7000 52.2000 1 8 267
1957358S13056 1958 87 SI MM NOT_NAMED 1957-12-26 03:00:00 TS -13.7133 51.7144 main 173 130 P____P___PP___ SH041958 -13.7000 51.7574 -1 -13.7284 51.5784 99 -13.7000 51.7574 TC 25 -13.7249 51.7644 1 9 268
1957358S13056 1958 87 SI MM NOT_NAMED 1957-12-26 06:00:00 TS -13.7268 51.2664 main 130 86 O____P___OP___ jtwc_sh SH041958 -13.7000 51.3000 -1 -13.7575 51.1507 99 -13.7000 51.3000 TC 25 -13.7498 51.3150 1 9 267
1957358S13056 1958 87 SI MM NOT_NAMED 1957-12-26 09:00:00 TS -13.7651 50.8415 main 75 32 P____P___PP___ SH041958 -13.7496 50.8950 -1 -13.7863 50.7177 99 -13.7496 50.8950 TC 25 -13.7749 50.8581 1 9 265
1957358S13056 1958 87 SI MM NOT_NAMED 1957-12-26 12:00:00 TS -13.8035 50.3700 main 32 0 O____P___OO___ jtwc_sh SH041958 -13.8000 50.4000 -1 -13.8141 50.2801 99 -13.8000 50.4000 TC 25 -13.8000 50.4000 1 10 267
1957358S13056 1958 87 SI MM NOT_NAMED 1957-12-26 15:00:00 TS -13.8163 49.7946 main 0 0 P____P___PP___ SH041958 -13.8001 49.6949 -1 -13.8401 49.8387 99 -13.8001 49.6949 TC 25 -13.8248 49.9500 1 12 269
1957358S13056 1958 87 SI MM NOT_NAMED 1957-12-26 18:00:00 TS -13.8283 49.1736 main 0 0 O____P___OP___ jtwc_sh SH041958 -13.8000 48.9000 -1 -13.8636 49.3944 99 -13.8000 48.9000 TC 25 -13.8497 49.5000 1 12 268
1957358S13056 1958 87 SI MM NOT_NAMED 1957-12-26 21:00:00 TS -13.8648 48.5296 main 0 0 P____P___PP___ SH041958 -13.8504 48.0602 -1 -13.8838 48.9479 99 -13.8504 48.0602 TC 25 -13.8748 49.0500 1 12 266
1957358S13056 1958 87 SI MM NOT_NAMED 1957-12-27 00:00:00 TS -13.9000 47.9750 reunion main 0 0 O____O___OO___ jtwc_sh SH041958 -13.9000 47.4000 -1 -13.9000 48.5000 99 9.90000 -13.9000 47.4000 TC 25 -13.9000 48.6000 1 9 267
1957358S13056 1958 87 SI MM NOT_NAMED 1957-12-27 03:00:00 TS -13.9103 47.6230 main 32 32 P____P___PP___ SH041958 -13.8996 47.1600 -1 -13.9134 48.0222 99 -13.8996 47.1600 TC 25 -13.9288 48.1500 1 6 268
1957358S13056 1958 87 SI MM NOT_NAMED 1957-12-27 06:00:00 TS -13.9201 47.3596 main 53 53 O____P___OP___ jtwc_sh SH041958 -13.9000 47.1000 -1 -13.9232 47.5383 99 -13.9000 47.1000 TC 25 -13.9572 47.7001 1 5 265
1957358S13056 1958 87 SI MM NOT_NAMED 1957-12-27 09:00:00 TS -13.9527 47.0776 main 78 78 P____P___PP___ SH041958 -13.9498 47.0025 -1 -13.9291 47.0553 99 -13.9498 47.0025 TC 25 -13.9819 47.2500 1 6 264
1957358S13056 1958 87 SI MM NOT_NAMED 1957-12-27 12:00:00 TS -13.9828 46.7451 main 116 116 O____P___OO___ jtwc_sh SH041958 -14.0000 46.8000 -1 -13.9312 46.5802 99 -14.0000 46.8000 TC 25 -14.0000 46.8000 1 8 267
1957358S13056 1958 87 SI MM NOT_NAMED 1957-12-27 15:00:00 TS -13.9890 46.2781 main 147 147 P____P___PP___ SH041958 -14.0077 46.3375 -1 -13.9293 46.1201 99 -14.0077 46.3375 TC 25 -14.0114 46.3175 1 9 270
1957358S13056 1958 87 SI MM NOT_NAMED 1957-12-27 18:00:00 TS -13.9847 45.7805 main 178 178 O____P___OP___ jtwc_sh SH041958 -14.0000 45.8000 -1 -13.9234 45.6820 99 -14.0000 45.8000 TC 25 -14.0152 45.8400 1 9 270
1957358S13056 1958 87 SI MM NOT_NAMED 1957-12-27 21:00:00 TS -13.9812 45.3476 main 210 210 P____P___PP___ SH041958 -13.9999 45.3625 -1 -13.9136 45.2729 99 -13.9999 45.3625 TC 25 -14.0114 45.3925 1 8 271
1957358S13056 1958 87 SI MM NOT_NAMED 1957-12-28 00:00:00 TS -13.9750 44.9750 reunion main 222 222 O____O___OO___ jtwc_sh SH041958 -14.0000 45.0000 -1 -13.9000 44.9000 99 9.90000 -14.0000 45.0000 TC 25 -14.0000 45.0000 1 6 271
1957358S13056 1958 87 SI MM NOT_NAMED 1957-12-28 03:00:00 TS -13.9686 44.6804 main 227 227 P____P___PP___ SH041958 -14.0074 44.7275 -1 -13.8737 44.5739 99 -14.0074 44.7275 TC 25 -13.9858 44.6925 1 5 273
1957358S13056 1958 87 SI MM NOT_NAMED 1957-12-28 06:00:00 TS -13.9517 44.4306 main 236 236 O____P___OP___ jtwc_sh SH041958 -14.0000 44.5000 -1 -13.8424 44.2824 99 -14.0000 44.5000 TC 25 -13.9644 44.4401 1 5 276
1957358S13056 1958 87 SI MM NOT_NAMED 1957-12-28 09:00:00 TS -13.9149 44.1846 main 254 254 P____P___PP___ SH041958 -13.9575 44.2500 -1 -13.8088 44.0210 99 -13.9575 44.2500 TC 25 -13.9359 44.2176 1 5 280
1957358S13056 1958 87 SI MM NOT_NAMED 1957-12-28 12:00:00 TS -13.8689 43.9462 main 268 268 O____P___OO___ jtwc_sh SH041958 -13.9000 44.0000 -1 -13.7756 43.7849 99 -13.9000 44.0000 TC 25 -13.9000 44.0000 1 5 281
1957358S13056 1958 87 SI MM NOT_NAMED 1957-12-28 15:00:00 TS -13.8226 43.7018 main 288 288 P____P___PP___ SH041958 -13.8500 43.7500 -1 -13.7454 43.5694 99 -13.8500 43.7500 TC 25 -13.8450 43.7377 1 5 281
1957358S13056 1958 87 SI MM NOT_NAMED 1957-12-28 18:00:00 TS -13.7765 43.4618 main 296 274 O____P___OP___ jtwc_sh SH041958 -13.8000 43.5000 -1 -13.7210 43.3699 99 -13.8000 43.5000 TC 25 -13.7850 43.4774 1 5 281
1957358S13056 1958 87 SI MM NOT_NAMED 1957-12-28 21:00:00 TS -13.7306 43.2237 main 274 253 P____P___PP___ SH041958 -13.7425 43.2425 -1 -13.7050 43.1816 99 -13.7425 43.2425 TC 25 -13.7325 43.2283 1 5 280
1957358S13056 1958 87 SI MM NOT_NAMED 1957-12-29 00:00:00 TS -13.7000 43.0000 reunion main 253 233 O____O___OO___ jtwc_sh SH041958 -13.7000 43.0000 -1 -13.7000 43.0000 99 9.90000 -13.7000 43.0000 TC 25 -13.7000 43.0000 1 4 276
1957358S13056 1958 87 SI MM NOT_NAMED 1957-12-29 03:00:00 TS -13.6886 42.7943 main 233 213 P____P___PP___ SH041958 -13.6850 42.7850 -1 -13.6891 42.8035 99 -13.6850 42.7850 TC 25 -13.6952 42.8035 1 4 270
1957358S13056 1958 87 SI MM NOT_NAMED 1957-12-29 06:00:00 TS -13.6995 42.6113 main 213 204 O____P___OP___ jtwc_sh SH041958 -13.7000 42.6000 -1 -13.6858 42.6177 99 -13.7000 42.6000 TC 25 -13.7123 42.6275 1 3 263
1957358S13056 1958 87 SI MM NOT_NAMED 1957-12-29 09:00:00 TS -13.7316 42.4471 main 194 179 P____P___PP___ SH041958 -13.7425 42.4425 -1 -13.6932 42.4404 99 -13.7425 42.4425 TC 25 -13.7483 42.4628 1 3 256
1957358S13056 1958 87 SI MM NOT_NAMED 1957-12-29 12:00:00 TS -13.7786 42.2923 main 179 160 O____P___OO___ jtwc_sh SH041958 -13.8000 42.3000 -1 -13.7144 42.2693 99 -13.8000 42.3000 TC 25 -13.8000 42.3000 1 3 254
1957358S13056 1958 87 SI MM NOT_NAMED 1957-12-29 15:00:00 TS -13.8205 42.1365 main 160 145 P____P___PP___ SH041958 -13.8425 42.1575 -1 -13.7526 42.1020 99 -13.8425 42.1575 TC 25 -13.8443 42.1290 1 3 252
1957358S13056 1958 87 SI MM NOT_NAMED 1957-12-29 18:00:00 TS -13.8789 41.9734 main 145 121 O____P___OP___ jtwc_sh SH041958 -13.9000 42.0000 -1 -13.8108 41.9362 99 -13.9000 42.0000 TC 25 -13.9049 41.9573 1 4 247
1957358S13056 1958 87 SI MM NOT_NAMED 1957-12-29 21:00:00 TS -13.9626 41.7917 main 121 97 P____P___PP___ SH041958 -13.9850 41.8075 -1 -13.8923 41.7697 99 -13.9850 41.8075 TC 25 -13.9881 41.7821 1 4 242
1957358S13056 1958 87 SI MM NOT_NAMED 1957-12-30 00:00:00 TS -14.0750 41.6000 reunion main 97 72 O____O___OO___ jtwc_sh SH041958 -14.1000 41.6000 -1 -14.0000 41.6000 99 9.90000 -14.1000 41.6000 TC 25 -14.1000 41.6000 1 4 236
1957358S13056 1958 87 SI MM NOT_NAMED 1957-12-30 03:00:00 TS -14.2113 41.4118 main 72 44 P____P___PP___ SH041958 -14.2350 41.4000 -1 -14.1373 41.4399 99 -14.2350 41.4000 TC 25 -14.2381 41.4072 1 5 231
1957358S13056 1958 87 SI MM NOT_NAMED 1957-12-30 06:00:00 TS -14.3767 41.2220 main 44 21 O____P___OP___ jtwc_sh SH041958 -14.4000 41.2000 -1 -14.3018 41.2804 99 -14.4000 41.2000 TC 25 -14.4050 41.2075 1 5 226
1957358S13056 1958 87 SI MM NOT_NAMED 1957-12-30 09:00:00 TS -14.5670 41.0303 main 21 0 P____P___PP___ SH041958 -14.5925 41.0000 -1 -14.4888 41.1174 99 -14.5925 41.0000 TC 25 -14.5944 41.0040 1 5 223
1957358S13056 1958 87 SI MM NOT_NAMED 1957-12-30 12:00:00 TS -14.7734 40.8366 main 0 0 O____P___OO___ jtwc_sh SH041958 -14.8000 40.8000 -1 -14.6938 40.9465 99 -14.8000 40.8000 TC 25 -14.8000 40.8000 1 6 223
1957358S13056 1958 87 SI MM NOT_NAMED 1957-12-30 15:00:00 TS -14.9783 40.6404 main 0 0 P____P___PP___ SH041958 -14.9925 40.5999 -1 -14.9121 40.7636 99 -14.9925 40.5999 TC 25 -15.0163 40.5980 1 6 222
1957358S13056 1958 87 SI MM NOT_NAMED 1957-12-30 18:00:00 TS -15.1905 40.4501 main 0 0 O____P___OP___ jtwc_sh SH041958 -15.2000 40.4000 -1 -15.1390 40.5644 99 -15.2000 40.4000 TC 25 -15.2401 40.3978 1 6 220
1957358S13056 1958 87 SI MM NOT_NAMED 1957-12-30 21:00:00 TS -15.4177 40.2576 main 0 0 P____P___PP___ SH041958 -15.4400 40.2001 -1 -15.3698 40.3446 99 -15.4400 40.2001 TC 25 -15.4689 40.1988 1 6 220
1957358S13056 1958 87 SI MM NOT_NAMED 1957-12-31 00:00:00 TS -15.6429 40.0571 reunion main 0 0 O____O___OO___ jtwc_sh SH041958 -15.7000 40.0000 -1 -15.6000 40.1000 99 9.90000 -15.7000 40.0000 TC 25 -15.7000 40.0000 1 6 225
1957358S13056 1958 87 SI MM NOT_NAMED 1957-12-31 03:00:00 NR -15.8256 39.8276 main 0 0 _____P________ SH041958 -1 -15.8256 39.8276 99 TC 1 7 232
1957358S13056 1958 87 SI MM NOT_NAMED 1957-12-31 06:00:00 NR -16.0463 39.5295 main 0 0 _____P________ -1 -16.0463 39.5295 99 1 7 234
1957358S13056 1958 87 SI MM NOT_NAMED 1957-12-31 09:00:00 NR -16.2628 39.2094 main 0 0 _____P________ -1 -16.2628 39.2094 99 1 8 236
1957358S13056 1958 87 SI MM NOT_NAMED 1957-12-31 12:00:00 NR -16.4754 38.8705 main 0 0 _____P________ -1 -16.4754 38.8705 99 8 238
1957358S13056 1958 87 SI MM NOT_NAMED 1957-12-31 15:00:00 NR -16.6849 38.5166 main 0 0 _____P________ -1 -16.6849 38.5166 99 8 239
1957358S13056 1958 87 SI MM NOT_NAMED 1957-12-31 18:00:00 NR -16.8917 38.1512 main 0 0 _____P________ -1 -16.8917 38.1512 99 8 240
1957358S13056 1958 87 SI MM NOT_NAMED 1957-12-31 21:00:00 NR -17.0966 37.7778 main 0 0 _____P________ -1 -17.0966 37.7778 99 8 240
1957358S13056 1958 87 SI MM NOT_NAMED 1958-01-01 00:00:00 NR -17.3000 37.4000 reunion main 0 _____O________ -1 -17.3000 37.4000 99 9.90000 8 240

IBTrACS Databaseについて

本データベースは、米国NOAAが公開する1842年以降の世界の熱帯低気圧のベストトラックデータアーカイブInternational Best Track Archive for Climate Stewardship (IBTrACS)を、ウェブで閲覧しやすい形式に変換したものです。

最終更新日:2021-12-06